Monmouth, Iowa
Current Conditions -  °F | °C
As of 12:55 AM on Monday 24 Nov 2014 (Local Time) from KMXO Reporting Station
Unknown Precip Unknown Precip  
Wind Chill: 30°   Ceiling: 700
Heat Index: 39°   Visibility: 2.5mi
Dew Point: 39°   Wind: 20mph
Humidity: 100%   Direction: 310°NW
Pressure: 29.18"   Gusts: 26mph
Location:  42.08°N, 90.88°W
Report Text: KMXO 240655Z AUTO 31017G23KT 2 1/2SM -UP OVC007 04/04 A2918 RMK AO2
Loading
Personal Weather Stations






























Interactive Weather Map New forecast layout! Learn more

10-Day Weather Forecast

Advertisements
Track Severe Weather on mobile